createdAt,value
2022-09-07T00:00:50.736Z,2.22
2022-09-07T00:03:17.411Z,2.13
2022-09-07T00:05:43.878Z,2.30
2022-09-07T00:08:10.225Z,2.85
2022-09-07T00:10:36.616Z,2.13
2022-09-07T00:13:02.913Z,2.00
2022-09-07T00:15:29.239Z,1.65
2022-09-07T00:17:55.595Z,3.03
2022-09-07T00:20:21.815Z,2.75
2022-09-07T00:22:48.119Z,2.30
2022-09-07T00:25:14.351Z,2.33
2022-09-07T00:27:40.663Z,2.13
2022-09-07T00:30:06.950Z,2.50
2022-09-07T00:32:33.406Z,2.00
2022-09-07T00:34:59.671Z,4.43
2022-09-07T00:37:25.952Z,2.25
2022-09-07T00:39:52.296Z,1.92
2022-09-07T00:42:18.598Z,2.35
2022-09-07T00:44:44.884Z,1.52
2022-09-07T00:47:11.226Z,2.63
2022-09-07T00:49:37.585Z,1.95
2022-09-07T00:52:03.866Z,2.33
2022-09-07T00:54:30.179Z,1.90
2022-09-07T00:56:56.551Z,2.17
2022-09-07T00:59:22.792Z,1.90
2022-09-07T01:01:49.377Z,2.20
2022-09-07T01:04:15.776Z,2.63
2022-09-07T01:06:42.071Z,2.85
2022-09-07T01:09:08.354Z,2.13
2022-09-07T01:11:34.636Z,2.38
2022-09-07T01:14:00.891Z,2.47
2022-09-07T01:16:27.329Z,2.97
2022-09-07T01:18:53.948Z,2.35
2022-09-07T01:21:20.266Z,2.05
2022-09-07T01:23:46.562Z,2.13
2022-09-07T01:26:12.867Z,2.20
2022-09-07T01:28:39.354Z,2.38
2022-09-07T01:31:05.670Z,2.65
2022-09-07T01:33:32.182Z,2.40
2022-09-07T01:35:58.466Z,2.28
2022-09-07T01:38:24.800Z,1.92
2022-09-07T01:40:51.221Z,2.55
2022-09-07T01:43:17.488Z,2.05
2022-09-07T01:45:43.868Z,2.03
2022-09-07T01:48:10.163Z,1.98
2022-09-07T01:50:36.488Z,2.53
2022-09-07T01:53:02.762Z,2.10
2022-09-07T01:55:29.082Z,2.75
2022-09-07T01:57:55.416Z,2.08
2022-09-07T02:00:21.706Z,1.70
2022-09-07T02:02:48.110Z,2.05
2022-09-07T02:05:14.440Z,2.33
2022-09-07T02:07:40.744Z,2.15
2022-09-07T02:10:07.024Z,3.25
2022-09-07T02:12:33.270Z,2.78
2022-09-07T02:14:59.733Z,2.55
2022-09-07T02:17:25.955Z,2.90
2022-09-07T02:19:52.197Z,2.45
2022-09-07T02:22:18.483Z,2.22
2022-09-07T02:24:44.722Z,2.22
2022-09-07T02:27:11.018Z,2.35
2022-09-07T02:29:37.278Z,1.88
2022-09-07T02:32:03.577Z,3.13
2022-09-07T02:34:29.987Z,2.55
2022-09-07T02:36:56.263Z,2.90
2022-09-07T02:39:22.532Z,2.75
2022-09-07T02:41:48.927Z,2.30
2022-09-07T02:44:15.230Z,2.45
2022-09-07T02:46:41.600Z,2.63
2022-09-07T02:49:07.940Z,2.10
2022-09-07T02:51:34.217Z,2.22
2022-09-07T02:54:00.486Z,2.85
2022-09-07T02:56:26.956Z,2.72
2022-09-07T02:58:53.178Z,2.25
2022-09-07T03:01:19.478Z,2.75
2022-09-07T03:03:45.828Z,2.83
2022-09-07T03:06:12.271Z,2.72
2022-09-07T03:08:38.553Z,2.53
2022-09-07T03:11:04.779Z,2.50
2022-09-07T03:13:31.230Z,2.38
2022-09-07T03:15:57.614Z,3.45
2022-09-07T03:18:23.899Z,2.70
2022-09-07T03:20:50.209Z,2.63
2022-09-07T03:23:16.616Z,3.00
2022-09-07T03:25:42.896Z,2.92
2022-09-07T03:28:09.159Z,2.60
2022-09-07T03:30:35.472Z,3.20
2022-09-07T03:33:01.823Z,2.15
2022-09-07T03:35:28.423Z,2.78
2022-09-07T03:37:54.701Z,3.30
2022-09-07T03:40:21.006Z,3.13
2022-09-07T03:42:47.417Z,2.65
2022-09-07T03:45:13.720Z,2.67
2022-09-07T03:47:39.988Z,3.67
2022-09-07T03:50:06.289Z,4.00
2022-09-07T03:52:32.560Z,3.70
2022-09-07T03:54:58.812Z,3.50
2022-09-07T03:57:25.024Z,3.03
2022-09-07T03:59:51.312Z,3.08
2022-09-07T04:02:17.680Z,2.90
2022-09-07T04:04:43.999Z,2.35
2022-09-07T04:07:10.408Z,2.75
2022-09-07T04:09:36.740Z,2.42
2022-09-07T04:12:02.980Z,2.88
2022-09-07T04:14:29.235Z,3.30
2022-09-07T04:16:55.516Z,3.00
2022-09-07T04:19:21.849Z,4.50
2022-09-07T04:21:48.128Z,4.55
2022-09-07T04:24:14.760Z,2.97
2022-09-07T04:26:41.099Z,2.53
2022-09-07T04:29:07.415Z,2.67
2022-09-07T04:31:33.718Z,3.10
2022-09-07T04:33:59.994Z,3.58
2022-09-07T04:36:26.294Z,3.60
2022-09-07T04:38:52.635Z,3.20
2022-09-07T04:41:19.077Z,3.45
2022-09-07T04:43:45.298Z,2.78
2022-09-07T04:46:11.850Z,2.40
2022-09-07T04:48:38.143Z,2.80
2022-09-07T04:51:05.892Z,3.10
2022-09-07T04:53:32.296Z,3.75
2022-09-07T04:55:58.545Z,2.75
2022-09-07T04:58:24.838Z,3.47
2022-09-07T05:00:51.269Z,3.22
2022-09-07T05:03:17.597Z,2.60
2022-09-07T05:05:43.944Z,2.83
2022-09-07T05:08:10.203Z,3.47
2022-09-07T05:10:36.613Z,3.42
2022-09-07T05:13:02.835Z,3.67
2022-09-07T05:15:29.068Z,3.60
2022-09-07T05:17:55.398Z,3.05
2022-09-07T05:20:21.726Z,3.90
2022-09-07T05:22:48.217Z,3.63
2022-09-07T05:25:14.491Z,2.78
2022-09-07T05:27:40.925Z,4.03
2022-09-07T05:30:07.472Z,3.20
2022-09-07T05:32:33.792Z,3.00
2022-09-07T05:35:00.036Z,3.97
2022-09-07T05:37:26.328Z,3.25
2022-09-07T05:39:52.593Z,2.70
2022-09-07T05:42:18.857Z,4.63
2022-09-07T05:44:45.649Z,3.67
2022-09-07T05:47:12.272Z,2.53
2022-09-07T05:49:38.582Z,2.63
2022-09-07T05:52:04.864Z,2.78
2022-09-07T05:54:31.191Z,3.95
2022-09-07T05:56:57.480Z,2.95
2022-09-07T05:59:23.762Z,2.90
2022-09-07T06:01:50.188Z,3.65
2022-09-07T06:04:16.575Z,3.38
2022-09-07T06:06:47.787Z,3.53
2022-09-07T06:09:29.850Z,3.65
2022-09-07T06:11:56.877Z,3.38
2022-09-07T06:14:23.207Z,3.63
2022-09-07T06:16:49.770Z,3.13
2022-09-07T06:19:16.184Z,3.60
2022-09-07T06:21:42.488Z,4.30
2022-09-07T06:24:08.773Z,4.70
2022-09-07T06:26:34.983Z,3.17
2022-09-07T06:29:01.312Z,4.45
2022-09-07T06:31:27.816Z,3.75
2022-09-07T06:33:54.099Z,3.20
2022-09-07T06:36:20.373Z,5.05
2022-09-07T06:38:46.639Z,3.88
2022-09-07T06:43:59.167Z,4.18
2022-09-07T06:49:11.783Z,3.83
2022-09-07T06:51:38.091Z,4.22
2022-09-07T06:56:50.668Z,3.63
2022-09-07T06:59:17.119Z,4.15
2022-09-07T07:01:43.445Z,5.07
2022-09-07T07:04:09.741Z,4.28
2022-09-07T07:06:36.031Z,3.55
2022-09-07T07:09:02.282Z,4.50
2022-09-07T07:11:28.591Z,3.85
2022-09-07T07:13:54.872Z,4.53
2022-09-07T07:16:21.307Z,4.88
2022-09-07T07:18:47.724Z,4.95
2022-09-07T07:21:14.112Z,3.92
2022-09-07T07:23:40.367Z,4.03
2022-09-07T07:26:06.725Z,6.60
2022-09-07T07:31:19.282Z,5.15
2022-09-07T07:33:45.709Z,4.53
2022-09-07T07:36:12.035Z,4.00
2022-09-07T07:44:10.749Z,4.25
2022-09-07T07:46:37.130Z,3.88
2022-09-07T07:49:03.591Z,4.68
2022-09-07T07:51:29.951Z,3.78
2022-09-07T07:53:57.125Z,4.57
2022-09-07T07:56:32.136Z,4.80
2022-09-07T07:58:58.775Z,4.80
2022-09-07T08:01:29.145Z,4.18
2022-09-07T08:03:55.972Z,4.10
2022-09-07T08:06:22.199Z,5.20
2022-09-07T08:08:48.428Z,4.75
2022-09-07T08:11:14.657Z,4.78
2022-09-07T08:13:40.868Z,5.53
2022-09-07T08:16:07.113Z,4.35
2022-09-07T08:18:33.340Z,4.40
2022-09-07T08:20:59.527Z,3.78
2022-09-07T08:23:25.804Z,4.85
2022-09-07T08:25:52.077Z,4.97
2022-09-07T08:28:18.309Z,4.47
2022-09-07T08:30:44.489Z,5.07
2022-09-07T08:33:10.705Z,4.80
2022-09-07T08:35:36.889Z,5.43
2022-09-07T08:38:03.103Z,5.07
2022-09-07T08:40:29.287Z,4.25
2022-09-07T08:42:55.520Z,5.03
2022-09-07T08:45:21.771Z,5.85
2022-09-07T08:47:47.987Z,5.20
2022-09-07T08:50:14.177Z,5.80
2022-09-07T08:52:40.429Z,5.57
2022-09-07T08:55:06.615Z,4.40
2022-09-07T08:57:32.834Z,4.03
2022-09-07T08:59:59.007Z,5.53
2022-09-07T09:02:28.982Z,5.35
2022-09-07T09:07:43.021Z,5.28
2022-09-07T09:10:09.288Z,6.13
2022-09-07T09:12:37.710Z,4.75
2022-09-07T09:15:04.170Z,5.95
2022-09-07T09:17:30.383Z,4.95
2022-09-07T09:19:56.559Z,6.65
2022-09-07T09:22:22.789Z,6.07
2022-09-07T09:24:48.983Z,5.88
2022-09-07T09:27:15.261Z,5.10
2022-09-07T09:29:41.469Z,5.72
2022-09-07T09:32:07.698Z,5.43
2022-09-07T09:34:35.198Z,6.45
2022-09-07T09:37:01.493Z,7.47
2022-09-07T09:39:27.743Z,6.57
2022-09-07T09:41:53.965Z,4.82
2022-09-07T09:44:20.167Z,5.22
2022-09-07T09:46:47.002Z,5.30
2022-09-07T09:49:13.228Z,5.50
2022-09-07T09:54:25.805Z,6.40
2022-09-07T09:56:52.189Z,5.75
2022-09-07T10:04:51.257Z,6.60
2022-09-07T10:07:17.690Z,6.45
2022-09-07T10:09:44.214Z,6.22
2022-09-07T10:12:10.655Z,5.60
2022-09-07T10:14:36.890Z,7.07
2022-09-07T10:17:03.181Z,5.80
2022-09-07T10:19:29.599Z,6.72
2022-09-07T10:21:55.890Z,7.57
2022-09-07T10:24:22.175Z,6.95
2022-09-07T10:26:48.534Z,7.32
2022-09-07T10:29:15.240Z,7.07
2022-09-07T10:31:41.913Z,5.78
2022-09-07T10:36:54.458Z,7.18
2022-09-07T10:39:20.709Z,6.95
2022-09-07T10:41:46.971Z,7.07
2022-09-07T10:44:13.158Z,6.60
2022-09-07T10:49:25.799Z,7.03
2022-09-07T10:51:52.072Z,5.68
2022-09-07T10:54:33.886Z,6.70
2022-09-07T10:57:00.353Z,6.97
2022-09-07T10:59:26.778Z,6.55
2022-09-07T11:01:53.239Z,8.70
2022-09-07T11:04:19.862Z,8.15
2022-09-07T11:06:46.178Z,6.85
2022-09-07T11:09:16.516Z,7.00
2022-09-07T11:14:29.542Z,7.40
2022-09-07T11:16:55.965Z,6.05
2022-09-07T11:19:38.155Z,8.23
2022-09-07T11:22:04.749Z,6.95
2022-09-07T11:24:31.232Z,6.68
2022-09-07T11:26:57.566Z,7.93
2022-09-07T11:29:30.841Z,7.20
2022-09-07T11:31:57.200Z,7.22
2022-09-07T11:34:24.142Z,6.97
2022-09-07T11:36:50.760Z,7.57
2022-09-07T11:39:17.055Z,6.82
2022-09-07T11:41:43.319Z,7.25
2022-09-07T11:44:09.639Z,6.45
2022-09-07T11:46:35.913Z,5.95
2022-09-07T11:49:04.479Z,6.85
2022-09-07T11:51:30.994Z,6.25
2022-09-07T11:53:57.247Z,6.28
2022-09-07T11:56:23.704Z,6.72
2022-09-07T11:58:49.970Z,7.03
2022-09-07T12:01:16.246Z,7.45
2022-09-07T12:03:42.655Z,7.72
2022-09-07T12:06:09.067Z,6.32
2022-09-07T12:08:35.300Z,7.97
2022-09-07T12:11:01.574Z,7.07
2022-09-07T12:13:28.016Z,7.03
2022-09-07T12:15:54.506Z,8.30
2022-09-07T12:18:20.866Z,7.07
2022-09-07T12:20:47.090Z,6.70
2022-09-07T12:23:13.310Z,6.63
2022-09-07T12:25:39.499Z,7.45
2022-09-07T12:28:05.790Z,7.38
2022-09-07T12:30:31.992Z,6.78
2022-09-07T12:32:58.907Z,6.93
2022-09-07T12:35:25.230Z,7.35
2022-09-07T12:37:51.458Z,6.85
2022-09-07T12:40:17.718Z,7.65
2022-09-07T12:42:43.967Z,6.93
2022-09-07T12:45:10.166Z,7.93
2022-09-07T12:47:36.401Z,6.25
2022-09-07T12:50:02.680Z,7.20
2022-09-07T12:52:31.499Z,7.78
2022-09-07T12:55:23.499Z,7.03
2022-09-07T12:57:44.221Z,7.47
2022-09-07T13:00:10.465Z,6.78
2022-09-07T13:02:37.870Z,7.25
2022-09-07T13:05:04.182Z,7.43
2022-09-07T13:07:30.455Z,8.50
2022-09-07T13:09:56.669Z,7.88
2022-09-07T13:15:14.626Z,6.15
2022-09-07T13:17:46.430Z,7.00
2022-09-07T13:20:15.266Z,6.60
2022-09-07T13:22:41.485Z,6.53
2022-09-07T13:25:07.697Z,7.47
2022-09-07T13:27:33.949Z,7.15
2022-09-07T13:30:00.357Z,7.18
2022-09-07T13:33:08.014Z,8.23
2022-09-07T13:35:12.957Z,7.13
2022-09-07T13:37:39.276Z,6.35
2022-09-07T13:40:05.518Z,7.90
2022-09-07T13:42:31.880Z,7.32
2022-09-07T13:44:58.181Z,6.90
2022-09-07T13:47:24.409Z,6.20
2022-09-07T13:49:55.546Z,6.97
2022-09-07T13:52:22.272Z,6.65
2022-09-07T13:54:48.538Z,6.80
2022-09-07T13:57:14.876Z,6.63
2022-09-07T13:59:41.169Z,7.30
2022-09-07T14:02:07.506Z,8.60
2022-09-07T14:04:36.048Z,7.25
2022-09-07T14:07:02.307Z,7.22
2022-09-07T14:09:31.030Z,6.82
2022-09-07T14:11:57.343Z,6.20
2022-09-07T14:14:23.547Z,6.60
2022-09-07T14:16:50.053Z,5.65
2022-09-07T14:19:16.637Z,7.18
2022-09-07T14:21:42.869Z,6.85
2022-09-07T14:24:09.101Z,7.32
2022-09-07T14:26:35.319Z,6.80
2022-09-07T14:29:01.594Z,6.60
2022-09-07T14:31:27.815Z,6.32
2022-09-07T14:33:54.059Z,6.70
2022-09-07T14:39:06.785Z,6.45
2022-09-07T14:41:33.049Z,6.70
2022-09-07T14:43:59.317Z,6.75
2022-09-07T14:46:25.607Z,6.47
2022-09-07T14:48:52.062Z,6.50
2022-09-07T14:51:32.407Z,7.57
2022-09-07T14:54:02.249Z,6.85
2022-09-07T14:56:28.453Z,5.88
2022-09-07T14:58:54.758Z,6.53
2022-09-07T15:04:07.274Z,6.40
2022-09-07T15:09:22.116Z,6.53
2022-09-07T15:11:49.322Z,5.75
2022-09-07T15:14:15.591Z,5.68
2022-09-07T15:16:42.084Z,6.72
2022-09-07T15:19:08.953Z,7.22
2022-09-07T15:21:35.312Z,5.97
2022-09-07T15:24:01.616Z,6.60
2022-09-07T15:29:14.412Z,6.90
2022-09-07T15:31:43.414Z,5.72
2022-09-07T15:34:11.050Z,7.05
2022-09-07T15:36:37.498Z,5.85
2022-09-07T15:39:03.901Z,6.55
2022-09-07T15:41:30.261Z,6.78
2022-09-07T15:43:56.867Z,6.07
2022-09-07T15:46:24.881Z,5.78
2022-09-07T15:48:51.382Z,7.15
2022-09-07T15:54:11.552Z,6.88
2022-09-07T15:56:39.460Z,5.40
2022-09-07T15:59:05.809Z,7.63
2022-09-07T16:04:18.667Z,6.55
2022-09-07T16:06:48.215Z,6.10
2022-09-07T16:09:14.811Z,5.20
2022-09-07T16:11:41.091Z,6.90
2022-09-07T16:14:07.414Z,6.45
2022-09-07T16:19:20.840Z,5.72
2022-09-07T16:21:47.367Z,6.82
2022-09-07T16:24:13.624Z,6.20
2022-09-07T16:26:39.852Z,7.53
2022-09-07T16:29:08.041Z,6.68
2022-09-07T16:31:34.682Z,5.03
2022-09-07T16:34:01.104Z,6.18
2022-09-07T16:36:27.437Z,6.93
2022-09-07T16:38:53.649Z,6.50
2022-09-07T16:41:20.464Z,5.80
2022-09-07T16:43:46.821Z,7.32
2022-09-07T16:46:13.080Z,6.13
2022-09-07T16:48:39.473Z,6.50
2022-09-07T16:51:05.688Z,6.65
2022-09-07T16:53:31.921Z,7.47
2022-09-07T16:55:58.361Z,7.57
2022-09-07T16:58:39.961Z,8.13
2022-09-07T17:01:06.282Z,6.93
2022-09-07T17:03:32.759Z,7.22
2022-09-07T17:05:59.058Z,6.22
2022-09-07T17:08:25.378Z,6.55
2022-09-07T17:10:51.607Z,6.68
2022-09-07T17:13:18.000Z,5.97
2022-09-07T17:15:44.208Z,5.53
2022-09-07T17:18:10.623Z,8.07
2022-09-07T17:20:37.167Z,7.18
2022-09-07T17:23:03.352Z,5.30
2022-09-07T17:25:29.697Z,6.05
2022-09-07T17:27:59.722Z,5.18
2022-09-07T17:30:42.253Z,7.22
2022-09-07T17:33:08.611Z,7.40
2022-09-07T17:35:37.404Z,2.63
2022-09-07T17:39:14.367Z,7.03
2022-09-07T17:40:50.633Z,7.45
2022-09-07T17:46:03.360Z,6.78
2022-09-07T17:48:29.915Z,5.57
2022-09-07T17:50:56.127Z,6.20
2022-09-07T17:53:22.389Z,4.80
2022-09-07T17:55:48.790Z,5.93
2022-09-07T17:58:15.072Z,6.88
2022-09-07T18:00:41.519Z,6.63
2022-09-07T18:03:08.104Z,6.28
2022-09-07T18:05:42.263Z,6.80
2022-09-07T18:13:37.242Z,7.00
2022-09-07T18:16:03.765Z,8.27
2022-09-07T18:18:30.239Z,8.60
2022-09-07T18:20:56.425Z,8.75
2022-09-07T18:23:22.668Z,7.10
2022-09-07T18:25:49.124Z,8.55
2022-09-07T18:31:01.811Z,8.73
2022-09-07T18:33:28.036Z,9.85
2022-09-07T18:35:55.109Z,8.05
2022-09-07T18:38:21.380Z,8.48
2022-09-07T18:40:47.823Z,11.23
2022-09-07T18:43:16.376Z,10.32
2022-09-07T18:45:43.136Z,9.93
2022-09-07T18:48:14.802Z,8.75
2022-09-07T18:50:57.969Z,9.98
2022-09-07T18:53:24.422Z,8.98
2022-09-07T18:55:50.918Z,10.82
2022-09-07T18:58:17.147Z,11.02
2022-09-07T19:00:44.862Z,9.65
2022-09-07T19:03:11.547Z,11.02
2022-09-07T19:05:53.322Z,11.48
2022-09-07T19:08:19.783Z,10.20
2022-09-07T19:10:53.603Z,11.27
2022-09-07T19:13:19.881Z,9.45
2022-09-07T19:15:46.179Z,10.65
2022-09-07T19:18:13.262Z,9.50
2022-09-07T19:20:39.572Z,10.50
2022-09-07T19:23:05.904Z,10.75
2022-09-07T19:25:32.158Z,9.45
2022-09-07T19:27:58.544Z,9.68
2022-09-07T19:30:24.846Z,9.85
2022-09-07T19:32:51.330Z,8.70
2022-09-07T19:35:17.536Z,9.32
2022-09-07T19:37:43.783Z,9.50
2022-09-07T19:40:10.158Z,9.77
2022-09-07T19:42:36.418Z,10.75
2022-09-07T19:45:02.658Z,9.93
2022-09-07T19:47:29.078Z,9.95
2022-09-07T19:49:55.388Z,10.25
2022-09-07T19:52:21.654Z,9.95
2022-09-07T19:54:47.876Z,8.82
2022-09-07T19:57:14.101Z,10.30
2022-09-07T19:59:40.792Z,8.60
2022-09-07T20:02:07.081Z,9.25
2022-09-07T20:04:33.383Z,11.40
2022-09-07T20:06:59.636Z,9.85
2022-09-07T20:09:25.871Z,10.13
2022-09-07T20:11:52.083Z,9.95
2022-09-07T20:14:18.488Z,8.00
2022-09-07T20:16:44.809Z,10.50
2022-09-07T20:19:11.116Z,9.95
2022-09-07T20:21:37.517Z,9.65
2022-09-07T20:24:03.961Z,8.40
2022-09-07T20:26:30.168Z,8.90
2022-09-07T20:29:11.079Z,10.25
2022-09-07T20:31:43.109Z,9.18
2022-09-07T20:34:09.377Z,10.90
2022-09-07T20:36:35.656Z,9.00
2022-09-07T20:39:01.900Z,9.77
2022-09-07T20:41:28.176Z,8.98
2022-09-07T20:43:54.395Z,8.93
2022-09-07T20:46:20.647Z,9.55
2022-09-07T20:48:46.953Z,7.88
2022-09-07T20:51:13.140Z,8.75
2022-09-07T20:53:39.403Z,8.27
2022-09-07T20:56:05.699Z,8.75
2022-09-07T20:58:32.024Z,9.13
2022-09-07T21:00:58.518Z,8.32
2022-09-07T21:03:24.798Z,9.63
2022-09-07T21:05:51.117Z,8.77
2022-09-07T21:08:17.450Z,9.30
2022-09-07T21:10:43.753Z,8.35
2022-09-07T21:13:10.050Z,8.30
2022-09-07T21:15:36.323Z,8.20
2022-09-07T21:18:02.763Z,8.10
2022-09-07T21:20:29.102Z,9.23
2022-09-07T21:22:55.341Z,8.13
2022-09-07T21:25:21.669Z,13.45
2022-09-07T21:27:47.961Z,8.65
2022-09-07T21:30:14.367Z,9.30
2022-09-07T21:32:40.858Z,7.35
2022-09-07T21:35:07.178Z,10.20
2022-09-07T21:37:37.793Z,8.07
2022-09-07T21:40:04.682Z,8.80
2022-09-07T21:42:31.073Z,8.40
2022-09-07T21:44:59.189Z,8.25
2022-09-07T21:47:25.418Z,7.85
2022-09-07T21:49:51.628Z,8.43
2022-09-07T21:52:18.261Z,6.95
2022-09-07T21:54:44.605Z,6.57
2022-09-07T21:57:10.808Z,7.20
2022-09-07T21:59:37.044Z,7.47
2022-09-07T22:02:03.309Z,6.68
2022-09-07T22:04:29.582Z,6.93
2022-09-07T22:06:55.916Z,7.38
2022-09-07T22:12:02.234Z,6.65
2022-09-07T22:14:28.468Z,6.97
2022-09-07T22:16:54.877Z,6.93
2022-09-07T22:19:21.081Z,7.50
2022-09-07T22:21:47.284Z,5.95
2022-09-07T22:24:13.530Z,6.78
2022-09-07T22:26:39.750Z,5.85
2022-09-07T22:29:05.989Z,7.10
2022-09-07T22:31:32.248Z,6.30
2022-09-07T22:33:58.545Z,6.18
2022-09-07T22:36:24.746Z,5.72
2022-09-07T22:38:50.975Z,5.95
2022-09-07T22:41:17.178Z,7.15
2022-09-07T22:43:43.381Z,5.55
2022-09-07T22:46:09.595Z,6.95
2022-09-07T22:48:35.857Z,6.70
2022-09-07T22:51:02.054Z,6.70
2022-09-07T22:53:28.264Z,7.50
2022-09-07T22:55:54.463Z,5.43
2022-09-07T22:58:20.680Z,7.40
2022-09-07T23:00:48.343Z,6.35
2022-09-07T23:03:14.603Z,6.10
2022-09-07T23:05:40.857Z,5.93
2022-09-07T23:08:07.112Z,7.10
2022-09-07T23:10:33.491Z,6.07
2022-09-07T23:12:59.734Z,5.30
2022-09-07T23:15:25.953Z,6.25
2022-09-07T23:17:52.187Z,5.78
2022-09-07T23:20:18.370Z,5.78
2022-09-07T23:22:44.582Z,5.68
2022-09-07T23:25:10.804Z,6.53
2022-09-07T23:27:37.058Z,6.40
2022-09-07T23:30:03.391Z,6.18
2022-09-07T23:32:29.678Z,5.57
2022-09-07T23:34:55.922Z,5.82
2022-09-07T23:37:22.182Z,5.50
2022-09-07T23:39:48.411Z,5.57
2022-09-07T23:42:14.763Z,5.50
2022-09-07T23:44:41.439Z,4.95
2022-09-07T23:47:07.653Z,6.72
2022-09-07T23:49:33.852Z,5.55
2022-09-07T23:52:00.119Z,6.28
2022-09-07T23:54:26.308Z,4.13
2022-09-07T23:56:52.514Z,6.50
2022-09-07T23:59:18.703Z,5.30
